sensor_id;sensor_type;location;lat;lon;timestamp;P1;durP1;ratioP1;P2;durP2;ratioP2
20065;SDS011;10193;48.884;9.182;2022-08-25T00:01:34;1.48;;;1.42;;
20065;SDS011;10193;48.884;9.182;2022-08-25T00:04:04;1.88;;;1.77;;
20065;SDS011;10193;48.884;9.182;2022-08-25T00:06:36;1.65;;;1.55;;
20065;SDS011;10193;48.884;9.182;2022-08-25T00:09:04;1.70;;;1.60;;
20065;SDS011;10193;48.884;9.182;2022-08-25T00:11:31;1.63;;;1.58;;
20065;SDS011;10193;48.884;9.182;2022-08-25T00:14:05;1.70;;;1.60;;
20065;SDS011;10193;48.884;9.182;2022-08-25T00:16:34;1.77;;;1.67;;
20065;SDS011;10193;48.884;9.182;2022-08-25T00:19:02;1.70;;;1.60;;
20065;SDS011;10193;48.884;9.182;2022-08-25T00:21:31;1.95;;;1.85;;
20065;SDS011;10193;48.884;9.182;2022-08-25T00:23:59;2.38;;;2.10;;
20065;SDS011;10193;48.884;9.182;2022-08-25T00:26:27;1.85;;;1.73;;
20065;SDS011;10193;48.884;9.182;2022-08-25T00:28:54;1.48;;;1.45;;
20065;SDS011;10193;48.884;9.182;2022-08-25T00:31:23;1.73;;;1.63;;
20065;SDS011;10193;48.884;9.182;2022-08-25T00:33:50;1.58;;;1.52;;
20065;SDS011;10193;48.884;9.182;2022-08-25T00:36:19;1.70;;;1.60;;
20065;SDS011;10193;48.884;9.182;2022-08-25T00:38:46;1.70;;;1.60;;
20065;SDS011;10193;48.884;9.182;2022-08-25T00:41:16;1.40;;;1.38;;
20065;SDS011;10193;48.884;9.182;2022-08-25T00:43:46;1.70;;;1.60;;
20065;SDS011;10193;48.884;9.182;2022-08-25T00:46:16;1.90;;;1.80;;
20065;SDS011;10193;48.884;9.182;2022-08-25T00:48:46;2.15;;;1.70;;
20065;SDS011;10193;48.884;9.182;2022-08-25T00:51:18;3.10;;;1.70;;
20065;SDS011;10193;48.884;9.182;2022-08-25T00:53:50;1.70;;;1.60;;
20065;SDS011;10193;48.884;9.182;2022-08-25T00:56:17;1.67;;;1.58;;
20065;SDS011;10193;48.884;9.182;2022-08-25T00:58:44;1.92;;;1.83;;
20065;SDS011;10193;48.884;9.182;2022-08-25T01:01:11;2.10;;;2.00;;
20065;SDS011;10193;48.884;9.182;2022-08-25T01:03:38;1.90;;;1.80;;
20065;SDS011;10193;48.884;9.182;2022-08-25T01:06:06;1.75;;;1.65;;
20065;SDS011;10193;48.884;9.182;2022-08-25T01:08:34;2.28;;;1.70;;
20065;SDS011;10193;48.884;9.182;2022-08-25T01:11:02;1.80;;;1.70;;
20065;SDS011;10193;48.884;9.182;2022-08-25T01:13:32;1.98;;;1.88;;
20065;SDS011;10193;48.884;9.182;2022-08-25T01:16:02;1.80;;;1.70;;
20065;SDS011;10193;48.884;9.182;2022-08-25T01:18:40;1.77;;;1.67;;
20065;SDS011;10193;48.884;9.182;2022-08-25T01:21:10;1.90;;;1.80;;
20065;SDS011;10193;48.884;9.182;2022-08-25T01:23:37;1.77;;;1.67;;
20065;SDS011;10193;48.884;9.182;2022-08-25T01:26:04;1.58;;;1.52;;
20065;SDS011;10193;48.884;9.182;2022-08-25T01:28:34;1.65;;;1.55;;
20065;SDS011;10193;48.884;9.182;2022-08-25T01:31:02;2.00;;;1.90;;
20065;SDS011;10193;48.884;9.182;2022-08-25T01:33:30;1.98;;;1.88;;
20065;SDS011;10193;48.884;9.182;2022-08-25T01:35:56;2.22;;;2.13;;
20065;SDS011;10193;48.884;9.182;2022-08-25T01:38:25;1.90;;;1.80;;
20065;SDS011;10193;48.884;9.182;2022-08-25T01:40:51;2.00;;;1.90;;
20065;SDS011;10193;48.884;9.182;2022-08-25T01:43:21;2.13;;;2.00;;
20065;SDS011;10193;48.884;9.182;2022-08-25T01:45:55;2.22;;;2.13;;
20065;SDS011;10193;48.884;9.182;2022-08-25T01:48:23;1.98;;;1.88;;
20065;SDS011;10193;48.884;9.182;2022-08-25T01:50:50;1.70;;;1.60;;
20065;SDS011;10193;48.884;9.182;2022-08-25T01:53:18;1.75;;;1.65;;
20065;SDS011;10193;48.884;9.182;2022-08-25T01:55:50;1.70;;;1.60;;
20065;SDS011;10193;48.884;9.182;2022-08-25T01:58:19;2.00;;;1.90;;
20065;SDS011;10193;48.884;9.182;2022-08-25T02:00:48;2.28;;;2.17;;
20065;SDS011;10193;48.884;9.182;2022-08-25T02:03:18;2.10;;;2.00;;
20065;SDS011;10193;48.884;9.182;2022-08-25T02:05:45;2.30;;;2.17;;
20065;SDS011;10193;48.884;9.182;2022-08-25T02:08:12;2.25;;;2.15;;
20065;SDS011;10193;48.884;9.182;2022-08-25T02:10:40;2.10;;;2.00;;
20065;SDS011;10193;48.884;9.182;2022-08-25T02:13:08;2.25;;;2.15;;
20065;SDS011;10193;48.884;9.182;2022-08-25T02:15:38;2.30;;;2.20;;
20065;SDS011;10193;48.884;9.182;2022-08-25T02:18:07;2.20;;;2.10;;
20065;SDS011;10193;48.884;9.182;2022-08-25T02:20:34;1.90;;;1.80;;
20065;SDS011;10193;48.884;9.182;2022-08-25T02:23:01;2.58;;;2.42;;
20065;SDS011;10193;48.884;9.182;2022-08-25T02:25:28;2.35;;;2.15;;
20065;SDS011;10193;48.884;9.182;2022-08-25T02:27:55;2.30;;;2.20;;
20065;SDS011;10193;48.884;9.182;2022-08-25T02:30:24;2.40;;;2.17;;
20065;SDS011;10193;48.884;9.182;2022-08-25T02:32:51;2.17;;;2.08;;
20065;SDS011;10193;48.884;9.182;2022-08-25T02:35:18;2.42;;;2.22;;
20065;SDS011;10193;48.884;9.182;2022-08-25T02:37:45;2.97;;;2.40;;
20065;SDS011;10193;48.884;9.182;2022-08-25T02:40:12;2.40;;;2.28;;
20065;SDS011;10193;48.884;9.182;2022-08-25T02:42:39;2.30;;;2.20;;
20065;SDS011;10193;48.884;9.182;2022-08-25T02:45:06;2.30;;;2.20;;
20065;SDS011;10193;48.884;9.182;2022-08-25T02:47:35;3.50;;;2.20;;
20065;SDS011;10193;48.884;9.182;2022-08-25T02:50:02;2.50;;;2.35;;
20065;SDS011;10193;48.884;9.182;2022-08-25T02:52:29;2.35;;;2.15;;
20065;SDS011;10193;48.884;9.182;2022-08-25T02:54:56;2.35;;;2.15;;
20065;SDS011;10193;48.884;9.182;2022-08-25T02:57:23;2.08;;;1.98;;
20065;SDS011;10193;48.884;9.182;2022-08-25T02:59:50;2.53;;;2.33;;
20065;SDS011;10193;48.884;9.182;2022-08-25T03:02:18;2.30;;;2.20;;
20065;SDS011;10193;48.884;9.182;2022-08-25T03:04:46;2.10;;;2.00;;
20065;SDS011;10193;48.884;9.182;2022-08-25T03:07:13;2.38;;;2.28;;
20065;SDS011;10193;48.884;9.182;2022-08-25T03:09:41;2.55;;;2.35;;
20065;SDS011;10193;48.884;9.182;2022-08-25T03:12:08;2.90;;;1.90;;
20065;SDS011;10193;48.884;9.182;2022-08-25T03:14:37;2.47;;;2.38;;
20065;SDS011;10193;48.884;9.182;2022-08-25T03:17:04;2.40;;;2.25;;
20065;SDS011;10193;48.884;9.182;2022-08-25T03:19:31;2.72;;;2.30;;
20065;SDS011;10193;48.884;9.182;2022-08-25T03:22:00;2.10;;;2.00;;
20065;SDS011;10193;48.884;9.182;2022-08-25T03:24:27;3.00;;;2.58;;
20065;SDS011;10193;48.884;9.182;2022-08-25T03:26:54;2.47;;;2.28;;
20065;SDS011;10193;48.884;9.182;2022-08-25T03:29:20;2.42;;;2.25;;
20065;SDS011;10193;48.884;9.182;2022-08-25T03:31:47;2.65;;;2.45;;
20065;SDS011;10193;48.884;9.182;2022-08-25T03:34:15;2.72;;;2.50;;
20065;SDS011;10193;48.884;9.182;2022-08-25T03:36:43;2.67;;;2.58;;
20065;SDS011;10193;48.884;9.182;2022-08-25T03:39:12;2.38;;;2.25;;
20065;SDS011;10193;48.884;9.182;2022-08-25T03:41:39;2.95;;;2.60;;
20065;SDS011;10193;48.884;9.182;2022-08-25T03:44:06;2.60;;;2.40;;
20065;SDS011;10193;48.884;9.182;2022-08-25T03:46:36;2.80;;;2.60;;
20065;SDS011;10193;48.884;9.182;2022-08-25T03:49:05;3.40;;;2.50;;
20065;SDS011;10193;48.884;9.182;2022-08-25T03:51:34;2.85;;;2.58;;
20065;SDS011;10193;48.884;9.182;2022-08-25T03:54:04;2.42;;;2.33;;
20065;SDS011;10193;48.884;9.182;2022-08-25T03:56:33;2.70;;;2.50;;
20065;SDS011;10193;48.884;9.182;2022-08-25T03:59:00;2.60;;;2.40;;
20065;SDS011;10193;48.884;9.182;2022-08-25T04:01:27;2.70;;;2.50;;
20065;SDS011;10193;48.884;9.182;2022-08-25T04:03:55;2.67;;;2.58;;
20065;SDS011;10193;48.884;9.182;2022-08-25T04:06:22;2.50;;;2.40;;
20065;SDS011;10193;48.884;9.182;2022-08-25T04:08:48;2.40;;;2.20;;
20065;SDS011;10193;48.884;9.182;2022-08-25T04:11:17;2.60;;;2.40;;
20065;SDS011;10193;48.884;9.182;2022-08-25T04:13:47;2.97;;;2.70;;
20065;SDS011;10193;48.884;9.182;2022-08-25T04:16:16;2.65;;;2.53;;
20065;SDS011;10193;48.884;9.182;2022-08-25T04:18:45;2.72;;;2.53;;
20065;SDS011;10193;48.884;9.182;2022-08-25T04:21:13;2.75;;;2.55;;
20065;SDS011;10193;48.884;9.182;2022-08-25T04:23:42;2.58;;;2.47;;
20065;SDS011;10193;48.884;9.182;2022-08-25T04:26:10;2.40;;;2.30;;
20065;SDS011;10193;48.884;9.182;2022-08-25T04:28:38;3.13;;;2.83;;
20065;SDS011;10193;48.884;9.182;2022-08-25T04:31:08;2.75;;;2.63;;
20065;SDS011;10193;48.884;9.182;2022-08-25T04:33:36;2.72;;;2.53;;
20065;SDS011;10193;48.884;9.182;2022-08-25T04:36:04;2.65;;;2.45;;
20065;SDS011;10193;48.884;9.182;2022-08-25T04:38:31;3.10;;;2.72;;
20065;SDS011;10193;48.884;9.182;2022-08-25T04:40:59;2.90;;;2.70;;
20065;SDS011;10193;48.884;9.182;2022-08-25T04:43:28;2.85;;;2.65;;
20065;SDS011;10193;48.884;9.182;2022-08-25T04:45:55;2.90;;;2.63;;
20065;SDS011;10193;48.884;9.182;2022-08-25T04:48:24;2.90;;;2.70;;
20065;SDS011;10193;48.884;9.182;2022-08-25T04:50:51;3.17;;;2.97;;
20065;SDS011;10193;48.884;9.182;2022-08-25T04:53:18;3.00;;;2.80;;
20065;SDS011;10193;48.884;9.182;2022-08-25T04:55:46;2.75;;;2.55;;
20065;SDS011;10193;48.884;9.182;2022-08-25T04:58:13;2.88;;;2.67;;
20065;SDS011;10193;48.884;9.182;2022-08-25T05:00:41;3.30;;;3.10;;
20065;SDS011;10193;48.884;9.182;2022-08-25T05:03:08;3.22;;;3.03;;
20065;SDS011;10193;48.884;9.182;2022-08-25T05:05:37;3.08;;;2.88;;
20065;SDS011;10193;48.884;9.182;2022-08-25T05:08:04;3.08;;;2.88;;
20065;SDS011;10193;48.884;9.182;2022-08-25T05:10:31;3.33;;;3.10;;
20065;SDS011;10193;48.884;9.182;2022-08-25T05:12:58;3.30;;;3.10;;
20065;SDS011;10193;48.884;9.182;2022-08-25T05:15:25;3.40;;;3.08;;
20065;SDS011;10193;48.884;9.182;2022-08-25T05:18:09;3.40;;;3.10;;
20065;SDS011;10193;48.884;9.182;2022-08-25T05:20:38;3.53;;;3.17;;
20065;SDS011;10193;48.884;9.182;2022-08-25T05:23:05;3.47;;;3.20;;
20065;SDS011;10193;48.884;9.182;2022-08-25T05:25:32;3.67;;;3.17;;
20065;SDS011;10193;48.884;9.182;2022-08-25T05:27:59;5.18;;;3.50;;
20065;SDS011;10193;48.884;9.182;2022-08-25T05:32:56;3.33;;;3.03;;
20065;SDS011;10193;48.884;9.182;2022-08-25T05:35:23;3.40;;;3.10;;
20065;SDS011;10193;48.884;9.182;2022-08-25T05:37:52;3.00;;;2.80;;
20065;SDS011;10193;48.884;9.182;2022-08-25T05:40:21;3.42;;;3.13;;
20065;SDS011;10193;48.884;9.182;2022-08-25T05:42:48;3.45;;;3.15;;
20065;SDS011;10193;48.884;9.182;2022-08-25T05:45:15;3.50;;;3.20;;
20065;SDS011;10193;48.884;9.182;2022-08-25T05:47:42;3.33;;;3.03;;
20065;SDS011;10193;48.884;9.182;2022-08-25T05:50:09;3.45;;;3.13;;
20065;SDS011;10193;48.884;9.182;2022-08-25T05:52:36;3.47;;;3.17;;
20065;SDS011;10193;48.884;9.182;2022-08-25T05:55:05;3.90;;;3.60;;
20065;SDS011;10193;48.884;9.182;2022-08-25T05:57:33;3.92;;;3.28;;
20065;SDS011;10193;48.884;9.182;2022-08-25T06:00:00;4.57;;;3.47;;
20065;SDS011;10193;48.884;9.182;2022-08-25T06:02:27;3.90;;;3.20;;
20065;SDS011;10193;48.884;9.182;2022-08-25T06:05:11;3.70;;;3.30;;
20065;SDS011;10193;48.884;9.182;2022-08-25T06:07:40;3.65;;;3.42;;
20065;SDS011;10193;48.884;9.182;2022-08-25T06:10:09;3.17;;;2.97;;
20065;SDS011;10193;48.884;9.182;2022-08-25T06:12:37;3.60;;;3.30;;
20065;SDS011;10193;48.884;9.182;2022-08-25T06:15:06;3.45;;;3.25;;
20065;SDS011;10193;48.884;9.182;2022-08-25T06:17:33;3.75;;;3.45;;
20065;SDS011;10193;48.884;9.182;2022-08-25T06:20:05;3.67;;;3.38;;
20065;SDS011;10193;48.884;9.182;2022-08-25T06:22:33;3.45;;;3.22;;
20065;SDS011;10193;48.884;9.182;2022-08-25T06:25:01;3.55;;;3.35;;
20065;SDS011;10193;48.884;9.182;2022-08-25T06:27:30;3.88;;;3.42;;
20065;SDS011;10193;48.884;9.182;2022-08-25T06:29:56;3.92;;;3.53;;
20065;SDS011;10193;48.884;9.182;2022-08-25T06:32:29;3.50;;;3.30;;
20065;SDS011;10193;48.884;9.182;2022-08-25T06:34:56;3.42;;;3.13;;
20065;SDS011;10193;48.884;9.182;2022-08-25T06:37:23;3.30;;;3.10;;
20065;SDS011;10193;48.884;9.182;2022-08-25T06:39:50;3.25;;;3.05;;
20065;SDS011;10193;48.884;9.182;2022-08-25T06:42:17;3.58;;;3.28;;
20065;SDS011;10193;48.884;9.182;2022-08-25T06:44:45;3.17;;;2.97;;
20065;SDS011;10193;48.884;9.182;2022-08-25T06:47:12;3.53;;;3.20;;
20065;SDS011;10193;48.884;9.182;2022-08-25T06:49:39;3.42;;;3.22;;
20065;SDS011;10193;48.884;9.182;2022-08-25T06:52:06;3.20;;;3.00;;
20065;SDS011;10193;48.884;9.182;2022-08-25T06:54:34;3.38;;;3.17;;
20065;SDS011;10193;48.884;9.182;2022-08-25T06:57:01;3.22;;;3.03;;
20065;SDS011;10193;48.884;9.182;2022-08-25T06:59:28;3.00;;;2.80;;
20065;SDS011;10193;48.884;9.182;2022-08-25T07:01:57;3.05;;;2.85;;
20065;SDS011;10193;48.884;9.182;2022-08-25T07:04:24;3.00;;;2.80;;
20065;SDS011;10193;48.884;9.182;2022-08-25T07:06:51;3.30;;;3.10;;
20065;SDS011;10193;48.884;9.182;2022-08-25T07:09:18;3.30;;;3.10;;
20065;SDS011;10193;48.884;9.182;2022-08-25T07:11:45;3.38;;;3.08;;
20065;SDS011;10193;48.884;9.182;2022-08-25T07:14:13;3.80;;;3.20;;
20065;SDS011;10193;48.884;9.182;2022-08-25T07:16:41;3.10;;;2.90;;
20065;SDS011;10193;48.884;9.182;2022-08-25T07:19:11;3.10;;;2.90;;
20065;SDS011;10193;48.884;9.182;2022-08-25T07:21:38;3.30;;;3.10;;
20065;SDS011;10193;48.884;9.182;2022-08-25T07:24:11;3.10;;;2.90;;
20065;SDS011;10193;48.884;9.182;2022-08-25T07:26:39;3.10;;;2.90;;
20065;SDS011;10193;48.884;9.182;2022-08-25T07:29:08;3.08;;;2.88;;
20065;SDS011;10193;48.884;9.182;2022-08-25T07:31:36;3.58;;;3.30;;
20065;SDS011;10193;48.884;9.182;2022-08-25T07:34:03;3.50;;;3.20;;
20065;SDS011;10193;48.884;9.182;2022-08-25T07:36:49;3.20;;;3.00;;
20065;SDS011;10193;48.884;9.182;2022-08-25T07:39:16;3.47;;;3.17;;
20065;SDS011;10193;48.884;9.182;2022-08-25T07:41:43;3.40;;;3.10;;
20065;SDS011;10193;48.884;9.182;2022-08-25T07:44:10;3.20;;;2.72;;
20065;SDS011;10193;48.884;9.182;2022-08-25T07:46:38;3.35;;;3.08;;
20065;SDS011;10193;48.884;9.182;2022-08-25T07:49:05;3.35;;;3.15;;
20065;SDS011;10193;48.884;9.182;2022-08-25T07:51:33;3.17;;;2.97;;
20065;SDS011;10193;48.884;9.182;2022-08-25T07:54:01;3.45;;;3.17;;
20065;SDS011;10193;48.884;9.182;2022-08-25T07:56:29;3.25;;;3.00;;
20065;SDS011;10193;48.884;9.182;2022-08-25T07:58:56;3.33;;;3.00;;
20065;SDS011;10193;48.884;9.182;2022-08-25T08:01:23;4.93;;;3.10;;
20065;SDS011;10193;48.884;9.182;2022-08-25T08:03:51;3.10;;;2.90;;
20065;SDS011;10193;48.884;9.182;2022-08-25T08:06:19;3.20;;;3.00;;
20065;SDS011;10193;48.884;9.182;2022-08-25T08:08:48;4.57;;;2.97;;
20065;SDS011;10193;48.884;9.182;2022-08-25T08:11:18;3.20;;;3.00;;
20065;SDS011;10193;48.884;9.182;2022-08-25T08:13:46;3.17;;;2.97;;
20065;SDS011;10193;48.884;9.182;2022-08-25T08:16:15;3.22;;;2.97;;
20065;SDS011;10193;48.884;9.182;2022-08-25T08:18:43;3.20;;;3.00;;
20065;SDS011;10193;48.884;9.182;2022-08-25T08:21:11;3.10;;;2.90;;
20065;SDS011;10193;48.884;9.182;2022-08-25T08:23:38;3.30;;;3.10;;
20065;SDS011;10193;48.884;9.182;2022-08-25T08:26:05;3.50;;;3.30;;
20065;SDS011;10193;48.884;9.182;2022-08-25T08:28:33;3.50;;;3.30;;
20065;SDS011;10193;48.884;9.182;2022-08-25T08:31:00;3.25;;;3.03;;
20065;SDS011;10193;48.884;9.182;2022-08-25T08:33:27;3.25;;;3.05;;
20065;SDS011;10193;48.884;9.182;2022-08-25T08:35:56;3.10;;;2.88;;
20065;SDS011;10193;48.884;9.182;2022-08-25T08:38:23;3.38;;;3.17;;
20065;SDS011;10193;48.884;9.182;2022-08-25T08:40:53;3.40;;;3.15;;
20065;SDS011;10193;48.884;9.182;2022-08-25T08:43:40;3.83;;;3.10;;
20065;SDS011;10193;48.884;9.182;2022-08-25T08:46:08;3.40;;;3.20;;
20065;SDS011;10193;48.884;9.182;2022-08-25T08:51:28;3.63;;;3.33;;
20065;SDS011;10193;48.884;9.182;2022-08-25T08:53:59;4.15;;;2.95;;
20065;SDS011;10193;48.884;9.182;2022-08-25T08:56:33;3.38;;;3.17;;
20065;SDS011;10193;48.884;9.182;2022-08-25T08:59:06;3.55;;;3.08;;
20065;SDS011;10193;48.884;9.182;2022-08-25T09:01:41;3.35;;;3.15;;
20065;SDS011;10193;48.884;9.182;2022-08-25T09:04:12;6.35;;;3.17;;
20065;SDS011;10193;48.884;9.182;2022-08-25T09:06:45;3.58;;;3.28;;
20065;SDS011;10193;48.884;9.182;2022-08-25T09:09:23;3.45;;;3.15;;
20065;SDS011;10193;48.884;9.182;2022-08-25T09:11:55;3.40;;;3.10;;
20065;SDS011;10193;48.884;9.182;2022-08-25T09:14:32;3.00;;;2.80;;
20065;SDS011;10193;48.884;9.182;2022-08-25T09:17:09;3.10;;;2.90;;
20065;SDS011;10193;48.884;9.182;2022-08-25T09:22:51;4.25;;;2.90;;
20065;SDS011;10193;48.884;9.182;2022-08-25T09:25:27;3.03;;;2.83;;
20065;SDS011;10193;48.884;9.182;2022-08-25T09:28:07;2.92;;;2.72;;
20065;SDS011;10193;48.884;9.182;2022-08-25T09:30:42;3.22;;;3.03;;
20065;SDS011;10193;48.884;9.182;2022-08-25T09:33:17;3.00;;;2.80;;
20065;SDS011;10193;48.884;9.182;2022-08-25T09:35:47;3.42;;;3.13;;
20065;SDS011;10193;48.884;9.182;2022-08-25T09:38:16;3.40;;;3.10;;
20065;SDS011;10193;48.884;9.182;2022-08-25T09:40:43;3.10;;;2.90;;
20065;SDS011;10193;48.884;9.182;2022-08-25T09:43:18;3.13;;;2.92;;
20065;SDS011;10193;48.884;9.182;2022-08-25T09:45:49;3.13;;;2.92;;
20065;SDS011;10193;48.884;9.182;2022-08-25T09:48:25;2.92;;;2.72;;
20065;SDS011;10193;48.884;9.182;2022-08-25T09:50:56;2.90;;;2.70;;
20065;SDS011;10193;48.884;9.182;2022-08-25T09:53:25;3.25;;;2.97;;
20065;SDS011;10193;48.884;9.182;2022-08-25T09:55:56;3.28;;;2.70;;
20065;SDS011;10193;48.884;9.182;2022-08-25T09:58:28;3.30;;;3.00;;
20065;SDS011;10193;48.884;9.182;2022-08-25T10:01:12;3.20;;;3.00;;
20065;SDS011;10193;48.884;9.182;2022-08-25T10:03:58;3.05;;;2.85;;
20065;SDS011;10193;48.884;9.182;2022-08-25T10:06:28;2.92;;;2.72;;
20065;SDS011;10193;48.884;9.182;2022-08-25T10:09:01;2.92;;;2.67;;
20065;SDS011;10193;48.884;9.182;2022-08-25T10:11:32;2.97;;;2.78;;
20065;SDS011;10193;48.884;9.182;2022-08-25T10:14:03;2.90;;;2.70;;
20065;SDS011;10193;48.884;9.182;2022-08-25T10:16:34;2.70;;;2.50;;
20065;SDS011;10193;48.884;9.182;2022-08-25T10:19:02;3.10;;;2.90;;
20065;SDS011;10193;48.884;9.182;2022-08-25T10:21:31;2.97;;;2.78;;
20065;SDS011;10193;48.884;9.182;2022-08-25T10:24:00;3.00;;;2.80;;
20065;SDS011;10193;48.884;9.182;2022-08-25T10:26:33;2.97;;;2.72;;
20065;SDS011;10193;48.884;9.182;2022-08-25T10:29:14;2.90;;;2.70;;
20065;SDS011;10193;48.884;9.182;2022-08-25T10:31:51;3.03;;;2.83;;
20065;SDS011;10193;48.884;9.182;2022-08-25T10:34:26;2.88;;;2.67;;
20065;SDS011;10193;48.884;9.182;2022-08-25T10:37:08;2.90;;;2.70;;
20065;SDS011;10193;48.884;9.182;2022-08-25T10:39:43;2.85;;;2.65;;
20065;SDS011;10193;48.884;9.182;2022-08-25T10:42:15;3.47;;;3.17;;
20065;SDS011;10193;48.884;9.182;2022-08-25T10:45:02;3.15;;;2.95;;
20065;SDS011;10193;48.884;9.182;2022-08-25T10:50:58;2.85;;;2.65;;
20065;SDS011;10193;48.884;9.182;2022-08-25T10:53:34;3.25;;;2.95;;
20065;SDS011;10193;48.884;9.182;2022-08-25T10:56:18;3.22;;;3.00;;
20065;SDS011;10193;48.884;9.182;2022-08-25T10:58:59;2.78;;;2.58;;
20065;SDS011;10193;48.884;9.182;2022-08-25T11:01:43;2.72;;;2.63;;
20065;SDS011;10193;48.884;9.182;2022-08-25T11:04:22;3.17;;;2.97;;
20065;SDS011;10193;48.884;9.182;2022-08-25T11:06:54;3.47;;;3.17;;
20065;SDS011;10193;48.884;9.182;2022-08-25T11:09:24;3.40;;;3.20;;
20065;SDS011;10193;48.884;9.182;2022-08-25T11:11:58;3.20;;;3.00;;
20065;SDS011;10193;48.884;9.182;2022-08-25T11:14:29;3.55;;;3.15;;
20065;SDS011;10193;48.884;9.182;2022-08-25T11:17:00;3.03;;;2.72;;
20065;SDS011;10193;48.884;9.182;2022-08-25T11:19:35;3.38;;;3.17;;
20065;SDS011;10193;48.884;9.182;2022-08-25T11:22:06;3.40;;;3.10;;
20065;SDS011;10193;48.884;9.182;2022-08-25T11:24:40;2.80;;;2.60;;
20065;SDS011;10193;48.884;9.182;2022-08-25T11:27:17;3.13;;;2.92;;
20065;SDS011;10193;48.884;9.182;2022-08-25T11:29:50;3.00;;;2.80;;
20065;SDS011;10193;48.884;9.182;2022-08-25T11:32:25;2.90;;;2.70;;
20065;SDS011;10193;48.884;9.182;2022-08-25T11:34:59;3.00;;;2.80;;
20065;SDS011;10193;48.884;9.182;2022-08-25T11:37:27;2.90;;;2.60;;
20065;SDS011;10193;48.884;9.182;2022-08-25T11:40:02;2.95;;;2.75;;
20065;SDS011;10193;48.884;9.182;2022-08-25T11:43:00;2.70;;;2.60;;
20065;SDS011;10193;48.884;9.182;2022-08-25T11:45:48;2.65;;;2.45;;
20065;SDS011;10193;48.884;9.182;2022-08-25T11:48:27;2.70;;;2.50;;
20065;SDS011;10193;48.884;9.182;2022-08-25T11:51:05;2.90;;;2.70;;
20065;SDS011;10193;48.884;9.182;2022-08-25T11:53:35;2.55;;;2.45;;
20065;SDS011;10193;48.884;9.182;2022-08-25T11:56:04;2.83;;;2.47;;
20065;SDS011;10193;48.884;9.182;2022-08-25T11:58:38;2.75;;;2.60;;
20065;SDS011;10193;48.884;9.182;2022-08-25T12:01:11;2.75;;;2.55;;
20065;SDS011;10193;48.884;9.182;2022-08-25T12:04:10;2.78;;;2.50;;
20065;SDS011;10193;48.884;9.182;2022-08-25T12:15:23;2.85;;;2.53;;
20065;SDS011;10193;48.884;9.182;2022-08-25T12:23:36;2.55;;;2.35;;
20065;SDS011;10193;48.884;9.182;2022-08-25T12:26:06;2.88;;;2.67;;
20065;SDS011;10193;48.884;9.182;2022-08-25T12:28:40;2.50;;;2.35;;
20065;SDS011;10193;48.884;9.182;2022-08-25T12:31:29;2.50;;;2.28;;
20065;SDS011;10193;48.884;9.182;2022-08-25T12:34:13;2.50;;;2.40;;
20065;SDS011;10193;48.884;9.182;2022-08-25T12:40:13;2.40;;;2.20;;
20065;SDS011;10193;48.884;9.182;2022-08-25T12:42:51;2.63;;;2.40;;
20065;SDS011;10193;48.884;9.182;2022-08-25T12:45:33;2.50;;;2.30;;
20065;SDS011;10193;48.884;9.182;2022-08-25T12:51:07;2.33;;;2.22;;
20065;SDS011;10193;48.884;9.182;2022-08-25T12:53:41;3.05;;;2.25;;
20065;SDS011;10193;48.884;9.182;2022-08-25T12:56:18;2.30;;;2.10;;
20065;SDS011;10193;48.884;9.182;2022-08-25T12:58:54;2.30;;;2.10;;
20065;SDS011;10193;48.884;9.182;2022-08-25T13:01:36;2.45;;;2.35;;
20065;SDS011;10193;48.884;9.182;2022-08-25T13:04:33;2.47;;;2.20;;
20065;SDS011;10193;48.884;9.182;2022-08-25T13:07:24;2.50;;;2.30;;
20065;SDS011;10193;48.884;9.182;2022-08-25T13:10:12;2.10;;;2.00;;
20065;SDS011;10193;48.884;9.182;2022-08-25T13:12:51;2.88;;;2.50;;
20065;SDS011;10193;48.884;9.182;2022-08-25T13:15:25;2.25;;;2.05;;
20065;SDS011;10193;48.884;9.182;2022-08-25T13:18:14;2.20;;;2.10;;
20065;SDS011;10193;48.884;9.182;2022-08-25T13:20:45;2.35;;;2.20;;
20065;SDS011;10193;48.884;9.182;2022-08-25T13:23:15;2.20;;;2.10;;
20065;SDS011;10193;48.884;9.182;2022-08-25T13:25:45;2.25;;;2.05;;
20065;SDS011;10193;48.884;9.182;2022-08-25T13:28:22;2.13;;;2.03;;
20065;SDS011;10193;48.884;9.182;2022-08-25T13:30:55;2.25;;;2.10;;
20065;SDS011;10193;48.884;9.182;2022-08-25T13:33:24;2.10;;;2.00;;
20065;SDS011;10193;48.884;9.182;2022-08-25T13:35:52;2.40;;;2.30;;
20065;SDS011;10193;48.884;9.182;2022-08-25T13:38:35;2.15;;;2.05;;
20065;SDS011;10193;48.884;9.182;2022-08-25T13:41:02;2.55;;;2.40;;
20065;SDS011;10193;48.884;9.182;2022-08-25T13:43:30;2.30;;;2.20;;
20065;SDS011;10193;48.884;9.182;2022-08-25T13:45:57;2.00;;;1.90;;
20065;SDS011;10193;48.884;9.182;2022-08-25T13:48:31;1.95;;;1.85;;
20065;SDS011;10193;48.884;9.182;2022-08-25T13:51:08;1.88;;;1.77;;
20065;SDS011;10193;48.884;9.182;2022-08-25T13:53:47;2.20;;;2.10;;
20065;SDS011;10193;48.884;9.182;2022-08-25T13:56:23;3.25;;;1.90;;
20065;SDS011;10193;48.884;9.182;2022-08-25T13:58:53;2.00;;;1.90;;
20065;SDS011;10193;48.884;9.182;2022-08-25T14:01:21;1.92;;;1.83;;
20065;SDS011;10193;48.884;9.182;2022-08-25T14:03:51;2.00;;;1.90;;
20065;SDS011;10193;48.884;9.182;2022-08-25T14:06:20;1.80;;;1.70;;
20065;SDS011;10193;48.884;9.182;2022-08-25T14:09:03;1.80;;;1.70;;
20065;SDS011;10193;48.884;9.182;2022-08-25T14:11:39;2.15;;;2.05;;
20065;SDS011;10193;48.884;9.182;2022-08-25T14:14:09;1.80;;;1.70;;
20065;SDS011;10193;48.884;9.182;2022-08-25T14:16:39;2.08;;;1.98;;
20065;SDS011;10193;48.884;9.182;2022-08-25T14:19:13;1.90;;;1.80;;
20065;SDS011;10193;48.884;9.182;2022-08-25T14:21:41;2.05;;;1.95;;
20065;SDS011;10193;48.884;9.182;2022-08-25T14:24:08;1.90;;;1.80;;
20065;SDS011;10193;48.884;9.182;2022-08-25T14:26:39;1.88;;;1.77;;
20065;SDS011;10193;48.884;9.182;2022-08-25T14:29:06;2.17;;;2.08;;
20065;SDS011;10193;48.884;9.182;2022-08-25T14:31:35;1.98;;;1.88;;
20065;SDS011;10193;48.884;9.182;2022-08-25T14:34:08;2.30;;;2.20;;
20065;SDS011;10193;48.884;9.182;2022-08-25T14:36:38;1.90;;;1.80;;
20065;SDS011;10193;48.884;9.182;2022-08-25T14:39:05;2.00;;;1.90;;
20065;SDS011;10193;48.884;9.182;2022-08-25T14:41:33;2.00;;;1.90;;
20065;SDS011;10193;48.884;9.182;2022-08-25T14:44:03;1.67;;;1.58;;
20065;SDS011;10193;48.884;9.182;2022-08-25T14:46:32;1.90;;;1.80;;
20065;SDS011;10193;48.884;9.182;2022-08-25T14:49:02;2.10;;;2.00;;
20065;SDS011;10193;48.884;9.182;2022-08-25T14:51:32;2.00;;;1.90;;
20065;SDS011;10193;48.884;9.182;2022-08-25T14:54:03;2.10;;;2.00;;
20065;SDS011;10193;48.884;9.182;2022-08-25T14:56:32;1.98;;;1.88;;
20065;SDS011;10193;48.884;9.182;2022-08-25T14:58:59;5.35;;;1.80;;
20065;SDS011;10193;48.884;9.182;2022-08-25T15:01:26;2.00;;;1.90;;
20065;SDS011;10193;48.884;9.182;2022-08-25T15:03:56;2.08;;;1.98;;
20065;SDS011;10193;48.884;9.182;2022-08-25T15:06:26;1.92;;;1.83;;
20065;SDS011;10193;48.884;9.182;2022-08-25T15:08:54;1.90;;;1.80;;
20065;SDS011;10193;48.884;9.182;2022-08-25T15:11:36;2.10;;;2.00;;
20065;SDS011;10193;48.884;9.182;2022-08-25T15:14:04;1.88;;;1.77;;
20065;SDS011;10193;48.884;9.182;2022-08-25T15:16:34;2.00;;;1.90;;
20065;SDS011;10193;48.884;9.182;2022-08-25T15:19:05;2.10;;;2.00;;
20065;SDS011;10193;48.884;9.182;2022-08-25T15:21:32;2.03;;;1.92;;
20065;SDS011;10193;48.884;9.182;2022-08-25T15:24:00;1.90;;;1.80;;
20065;SDS011;10193;48.884;9.182;2022-08-25T15:26:27;1.95;;;1.85;;
20065;SDS011;10193;48.884;9.182;2022-08-25T15:28:53;1.98;;;1.88;;
20065;SDS011;10193;48.884;9.182;2022-08-25T15:31:20;1.80;;;1.70;;
20065;SDS011;10193;48.884;9.182;2022-08-25T15:33:48;1.92;;;1.83;;
20065;SDS011;10193;48.884;9.182;2022-08-25T15:36:17;1.95;;;1.85;;
20065;SDS011;10193;48.884;9.182;2022-08-25T15:38:48;1.88;;;1.75;;
20065;SDS011;10193;48.884;9.182;2022-08-25T15:41:15;2.03;;;1.92;;